This is the latest recevied weather packets stored in our database for station/object EA2KR-10. If no packets are shown the sender has not sent any weather packets the latest 10 day(s).
| Time | Temp. | Humidity | Pressure | Rain* | Wind** | Luminosity | Snow |
|---|---|---|---|---|---|---|---|
| 1788233607 | 20.56° C | 46% | 1032.4 hPa | - | - | - | - |
| 1788231807 | 20.56° C | 46% | 1032.6 hPa | - | - | - | - |
| 1788230007 | 20.56° C | 45% | 1032.7 hPa | - | - | - | - |
| 1788228207 | 21.11° C | 45% | 1033 hPa | - | - | - | - |
| 1788226407 | 21.11° C | 44% | 1033 hPa | - | - | - | - |
| 1788224606 | 21.11° C | 44% | 1033.1 hPa | - | - | - | - |
| 1788222806 | 21.67° C | 43% | 1033.2 hPa | - | - | - | - |
| 1788221006 | 21.67° C | 43% | 1033.4 hPa | - | - | - | - |
| 1788219206 | 22.22° C | 42% | 1033.4 hPa | - | - | - | - |
| 1788217411 | 22.78° C | 40% | 1033.7 hPa | - | - | - | - |
| 1788215606 | 23.33° C | 40% | 1033.7 hPa | - | - | - | - |
| 1788213806 | 23.89° C | 38% | 1033.9 hPa | - | - | - | - |
| 1788212006 | 24.44° C | 37% | 1033.9 hPa | - | - | - | - |
| 1788210205 | 25° C | 36% | 1033.7 hPa | - | - | - | - |
| 1788208405 | 25.56° C | 36% | 1033.5 hPa | - | - | - | - |
| 1788206605 | 26.67° C | 34% | 1033.3 hPa | - | - | - | - |
| 1788204805 | 28.33° C | 32% | 1032.8 hPa | - | - | - | - |
| 1788203005 | 29.44° C | 31% | 1032.6 hPa | - | - | - | - |
| 1788201206 | 31.11° C | 29% | 1032.6 hPa | - | - | - | - |
| 1788199406 | 33.33° C | 27% | 1032.4 hPa | - | - | - | - |
| 1788197606 | 35° C | 26% | 1032.4 hPa | - | - | - | - |
| 1788195806 | 36.67° C | 25% | 1032.3 hPa | - | - | - | - |
| 1788194006 | 37.22° C | 24% | 1032.5 hPa | - | - | - | - |
| 1788192206 | 38.33° C | 24% | 1032.5 hPa | - | - | - | - |
| 1788190406 | 38.33° C | 24% | 1032.7 hPa | - | - | - | - |
* Rain since midnight (hover to see other rain measurements)
** Current wind speed in m/s (hover to see current wind gust speed)